sensor_id;sensor_type;location;lat;lon;timestamp;pressure;altitude;pressure_sealevel;temperature;humidity
47082;BME280;33066;49.296;14.470;2023-11-19T00:00:26;97229.25;;;9.41;37.04
47082;BME280;33066;49.296;14.470;2023-11-19T00:02:51;97225.08;;;8.91;37.14
47082;BME280;33066;49.296;14.470;2023-11-19T00:05:16;97218.39;;;9.37;37.16
47082;BME280;33066;49.296;14.470;2023-11-19T00:07:42;97212.19;;;9.32;37.44
47082;BME280;33066;49.296;14.470;2023-11-19T00:10:08;97203.75;;;9.08;37.48
47082;BME280;33066;49.296;14.470;2023-11-19T00:12:35;97190.11;;;9.05;37.56
47082;BME280;33066;49.296;14.470;2023-11-19T00:14:58;97196.58;;;9.28;37.55
47082;BME280;33066;49.296;14.470;2023-11-19T00:17:24;97200.36;;;9.08;37.80
47082;BME280;33066;49.296;14.470;2023-11-19T00:19:50;97198.55;;;9.40;37.56
47082;BME280;33066;49.296;14.470;2023-11-19T00:22:15;97197.74;;;9.11;37.64
47082;BME280;33066;49.296;14.470;2023-11-19T00:24:40;97177.68;;;9.13;37.66
47082;BME280;33066;49.296;14.470;2023-11-19T00:27:05;97174.11;;;9.39;37.51
47082;BME280;33066;49.296;14.470;2023-11-19T00:29:31;97172.52;;;9.17;37.57
47082;BME280;33066;49.296;14.470;2023-11-19T00:31:56;97165.17;;;9.38;37.66
47082;BME280;33066;49.296;14.470;2023-11-19T00:34:22;97152.95;;;9.13;37.67
47082;BME280;33066;49.296;14.470;2023-11-19T00:36:48;97147.54;;;9.08;37.78
47082;BME280;33066;49.296;14.470;2023-11-19T00:39:12;97141.43;;;9.54;37.98
47082;BME280;33066;49.296;14.470;2023-11-19T00:41:38;97137.14;;;9.10;37.86
47082;BME280;33066;49.296;14.470;2023-11-19T00:44:04;97137.71;;;9.09;37.85
47082;BME280;33066;49.296;14.470;2023-11-19T00:46:29;97129.25;;;9.07;38.03
47082;BME280;33066;49.296;14.470;2023-11-19T00:48:55;97122.67;;;9.34;37.93
47082;BME280;33066;49.296;14.470;2023-11-19T00:51:20;97114.35;;;9.18;37.87
47082;BME280;33066;49.296;14.470;2023-11-19T00:53:46;97113.07;;;9.18;37.83
47082;BME280;33066;49.296;14.470;2023-11-19T00:56:11;97110.14;;;9.42;37.88
47082;BME280;33066;49.296;14.470;2023-11-19T00:58:37;97093.09;;;9.45;37.83
47082;BME280;33066;49.296;14.470;2023-11-19T01:01:02;97092.71;;;9.48;37.88
47082;BME280;33066;49.296;14.470;2023-11-19T01:03:27;97084.74;;;9.24;37.84
47082;BME280;33066;49.296;14.470;2023-11-19T01:05:53;97085.66;;;9.21;37.89
47082;BME280;33066;49.296;14.470;2023-11-19T01:08:18;97079.11;;;9.26;38.08
47082;BME280;33066;49.296;14.470;2023-11-19T01:10:43;97076.65;;;9.32;37.83
47082;BME280;33066;49.296;14.470;2023-11-19T01:13:09;97083.13;;;9.30;37.84
47082;BME280;33066;49.296;14.470;2023-11-19T01:15:34;97084.10;;;9.25;37.88
47082;BME280;33066;49.296;14.470;2023-11-19T01:17:59;97075.79;;;9.20;37.94
47082;BME280;33066;49.296;14.470;2023-11-19T01:20:24;97076.99;;;9.31;37.98
47082;BME280;33066;49.296;14.470;2023-11-19T01:22:50;97080.54;;;9.20;38.09
47082;BME280;33066;49.296;14.470;2023-11-19T01:25:15;97081.64;;;9.36;38.24
47082;BME280;33066;49.296;14.470;2023-11-19T01:27:40;97074.90;;;8.96;38.28
47082;BME280;33066;49.296;14.470;2023-11-19T01:30:07;97074.54;;;9.20;38.18
47082;BME280;33066;49.296;14.470;2023-11-19T01:32:31;97072.49;;;9.19;38.17
47082;BME280;33066;49.296;14.470;2023-11-19T01:34:57;97070.79;;;9.31;38.35
47082;BME280;33066;49.296;14.470;2023-11-19T01:37:22;97066.75;;;9.01;38.35
47082;BME280;33066;49.296;14.470;2023-11-19T01:39:48;97062.25;;;8.99;38.59
47082;BME280;33066;49.296;14.470;2023-11-19T01:42:14;97056.74;;;9.18;38.58
47082;BME280;33066;49.296;14.470;2023-11-19T01:44:39;97042.35;;;8.75;38.70
47082;BME280;33066;49.296;14.470;2023-11-19T01:47:06;97026.92;;;9.01;38.70
47082;BME280;33066;49.296;14.470;2023-11-19T01:49:30;97027.46;;;9.04;38.78
47082;BME280;33066;49.296;14.470;2023-11-19T01:51:57;97022.21;;;9.29;38.93
47082;BME280;33066;49.296;14.470;2023-11-19T01:54:21;97016.87;;;8.91;38.83
47082;BME280;33066;49.296;14.470;2023-11-19T01:56:46;96998.56;;;9.18;38.94
47082;BME280;33066;49.296;14.470;2023-11-19T01:59:12;96986.71;;;9.15;39.04
47082;BME280;33066;49.296;14.470;2023-11-19T02:01:37;96973.42;;;9.10;39.13
47082;BME280;33066;49.296;14.470;2023-11-19T02:04:02;96950.50;;;8.92;39.09
47082;BME280;33066;49.296;14.470;2023-11-19T02:06:28;96951.10;;;8.89;39.10
47082;BME280;33066;49.296;14.470;2023-11-19T02:08:53;96930.65;;;9.04;39.24
47082;BME280;33066;49.296;14.470;2023-11-19T02:11:19;96927.93;;;8.82;39.38
47082;BME280;33066;49.296;14.470;2023-11-19T02:13:43;96930.90;;;8.75;39.44
47082;BME280;33066;49.296;14.470;2023-11-19T02:16:09;96931.41;;;8.76;39.58
47082;BME280;33066;49.296;14.470;2023-11-19T02:18:34;96920.00;;;8.38;39.98
47082;BME280;33066;49.296;14.470;2023-11-19T02:21:00;96920.33;;;8.22;40.34
47082;BME280;33066;49.296;14.470;2023-11-19T02:23:27;96923.18;;;8.40;40.48
47082;BME280;33066;49.296;14.470;2023-11-19T02:26:02;96935.11;;;8.25;40.39
47082;BME280;33066;49.296;14.470;2023-11-19T02:28:17;96936.19;;;8.42;40.22
47082;BME280;33066;49.296;14.470;2023-11-19T02:30:42;96930.97;;;8.57;40.08
47082;BME280;33066;49.296;14.470;2023-11-19T02:33:07;96925.92;;;8.50;40.13
47082;BME280;33066;49.296;14.470;2023-11-19T02:35:33;96926.92;;;8.37;40.28
47082;BME280;33066;49.296;14.470;2023-11-19T02:37:59;96918.02;;;8.38;40.37
47082;BME280;33066;49.296;14.470;2023-11-19T02:40:25;96919.55;;;8.53;40.23
47082;BME280;33066;49.296;14.470;2023-11-19T02:42:50;96924.70;;;8.24;40.26
47082;BME280;33066;49.296;14.470;2023-11-19T02:45:16;96918.82;;;8.67;40.29
47082;BME280;33066;49.296;14.470;2023-11-19T02:47:41;96909.12;;;8.48;40.16
47082;BME280;33066;49.296;14.470;2023-11-19T02:50:08;96902.11;;;8.62;40.10
47082;BME280;33066;49.296;14.470;2023-11-19T02:52:32;96902.78;;;8.60;40.07
47082;BME280;33066;49.296;14.470;2023-11-19T02:54:57;96908.42;;;8.92;40.08
47082;BME280;33066;49.296;14.470;2023-11-19T02:57:22;96909.73;;;8.68;40.05
47082;BME280;33066;49.296;14.470;2023-11-19T02:59:48;96898.21;;;8.47;40.05
47082;BME280;33066;49.296;14.470;2023-11-19T03:02:13;96901.77;;;8.82;39.89
47082;BME280;33066;49.296;14.470;2023-11-19T03:04:39;96894.91;;;9.00;39.91
47082;BME280;33066;49.296;14.470;2023-11-19T03:07:04;96905.59;;;8.85;39.91
47082;BME280;33066;49.296;14.470;2023-11-19T03:09:31;96899.77;;;9.05;39.86
47082;BME280;33066;49.296;14.470;2023-11-19T03:11:55;96905.33;;;9.18;39.80
47082;BME280;33066;49.296;14.470;2023-11-19T03:14:21;96906.47;;;8.99;39.83
47082;BME280;33066;49.296;14.470;2023-11-19T03:16:45;96903.52;;;9.27;39.80
47082;BME280;33066;49.296;14.470;2023-11-19T03:19:12;96897.39;;;9.07;39.68
47082;BME280;33066;49.296;14.470;2023-11-19T03:21:36;96884.31;;;8.85;39.77
47082;BME280;33066;49.296;14.470;2023-11-19T03:24:01;96878.16;;;8.98;40.03
47082;BME280;33066;49.296;14.470;2023-11-19T03:26:28;96873.26;;;8.89;40.18
47082;BME280;33066;49.296;14.470;2023-11-19T03:28:52;96875.19;;;8.81;40.29
47082;BME280;33066;49.296;14.470;2023-11-19T03:31:17;96870.50;;;8.79;40.38
47082;BME280;33066;49.296;14.470;2023-11-19T03:33:43;96868.60;;;8.82;40.34
47082;BME280;33066;49.296;14.470;2023-11-19T03:36:08;96861.12;;;8.76;40.40
47082;BME280;33066;49.296;14.470;2023-11-19T03:38:35;96856.34;;;8.56;40.46
47082;BME280;33066;49.296;14.470;2023-11-19T03:40:59;96857.07;;;8.80;40.69
47082;BME280;33066;49.296;14.470;2023-11-19T03:43:24;96855.23;;;8.76;40.51
47082;BME280;33066;49.296;14.470;2023-11-19T03:45:49;96846.16;;;8.80;40.69
47082;BME280;33066;49.296;14.470;2023-11-19T03:48:16;96837.37;;;8.72;40.84
47082;BME280;33066;49.296;14.470;2023-11-19T03:50:40;96835.93;;;8.56;40.90
47082;BME280;33066;49.296;14.470;2023-11-19T03:53:06;96829.42;;;8.18;41.15
47082;BME280;33066;49.296;14.470;2023-11-19T03:55:33;96824.10;;;8.48;41.12
47082;BME280;33066;49.296;14.470;2023-11-19T03:57:58;96823.03;;;8.40;41.22
47082;BME280;33066;49.296;14.470;2023-11-19T04:00:21;96817.23;;;8.69;41.08
47082;BME280;33066;49.296;14.470;2023-11-19T04:02:46;96811.48;;;8.49;40.92
47082;BME280;33066;49.296;14.470;2023-11-19T04:05:12;96816.85;;;8.69;41.04
47082;BME280;33066;49.296;14.470;2023-11-19T04:07:39;96813.78;;;8.69;41.09
47082;BME280;33066;49.296;14.470;2023-11-19T04:13:01;96802.14;;;8.93;40.99
47082;BME280;33066;49.296;14.470;2023-11-19T04:15:26;96798.99;;;8.72;40.96
47082;BME280;33066;49.296;14.470;2023-11-19T04:17:51;96794.27;;;8.77;41.06
47082;BME280;33066;49.296;14.470;2023-11-19T04:20:17;96792.30;;;8.51;41.52
47082;BME280;33066;49.296;14.470;2023-11-19T04:22:42;96788.98;;;8.49;42.04
47082;BME280;33066;49.296;14.470;2023-11-19T04:25:08;96781.29;;;8.70;41.72
47082;BME280;33066;49.296;14.470;2023-11-19T04:27:35;96773.10;;;8.76;41.51
47082;BME280;33066;49.296;14.470;2023-11-19T04:29:59;96766.56;;;8.44;41.87
47082;BME280;33066;49.296;14.470;2023-11-19T04:34:50;96760.49;;;8.89;41.69
47082;BME280;33066;49.296;14.470;2023-11-19T04:37:15;96765.49;;;8.88;41.58
47082;BME280;33066;49.296;14.470;2023-11-19T04:39:40;96773.16;;;8.65;41.82
47082;BME280;33066;49.296;14.470;2023-11-19T04:42:06;96771.07;;;8.59;41.57
47082;BME280;33066;49.296;14.470;2023-11-19T04:44:31;96766.89;;;8.68;41.55
47082;BME280;33066;49.296;14.470;2023-11-19T04:46:56;96760.22;;;8.82;41.45
47082;BME280;33066;49.296;14.470;2023-11-19T04:49:22;96755.15;;;8.84;41.61
47082;BME280;33066;49.296;14.470;2023-11-19T04:51:47;96747.24;;;8.38;42.01
47082;BME280;33066;49.296;14.470;2023-11-19T04:54:13;96736.00;;;8.63;42.21
47082;BME280;33066;49.296;14.470;2023-11-19T04:56:39;96726.44;;;8.54;42.40
47082;BME280;33066;49.296;14.470;2023-11-19T04:59:04;96720.39;;;8.27;42.54
47082;BME280;33066;49.296;14.470;2023-11-19T05:01:29;96715.17;;;8.30;42.69
47082;BME280;33066;49.296;14.470;2023-11-19T05:03:55;96714.44;;;8.45;42.89
47082;BME280;33066;49.296;14.470;2023-11-19T05:06:19;96711.79;;;8.62;42.89
47082;BME280;33066;49.296;14.470;2023-11-19T05:08:45;96707.03;;;8.37;42.96
47082;BME280;33066;49.296;14.470;2023-11-19T05:11:10;96717.08;;;8.65;42.99
47082;BME280;33066;49.296;14.470;2023-11-19T05:13:36;96715.18;;;8.72;42.75
47082;BME280;33066;49.296;14.470;2023-11-19T05:16:01;96713.27;;;8.80;43.25
47082;BME280;33066;49.296;14.470;2023-11-19T05:18:27;96710.59;;;8.92;42.77
47082;BME280;33066;49.296;14.470;2023-11-19T05:20:52;96704.91;;;9.00;42.74
47082;BME280;33066;49.296;14.470;2023-11-19T05:23:17;96695.47;;;8.47;42.46
47082;BME280;33066;49.296;14.470;2023-11-19T05:25:44;96685.09;;;8.87;42.65
47082;BME280;33066;49.296;14.470;2023-11-19T05:28:08;96667.63;;;8.60;42.47
47082;BME280;33066;49.296;14.470;2023-11-19T05:30:33;96658.21;;;8.67;42.70
47082;BME280;33066;49.296;14.470;2023-11-19T05:33:00;96651.13;;;8.32;42.69
47082;BME280;33066;49.296;14.470;2023-11-19T05:35:24;96637.95;;;8.34;43.10
47082;BME280;33066;49.296;14.470;2023-11-19T05:37:50;96678.36;;;8.61;43.32
47082;BME280;33066;49.296;14.470;2023-11-19T05:40:16;96692.38;;;8.49;43.07
47082;BME280;33066;49.296;14.470;2023-11-19T05:42:41;96649.47;;;8.69;43.05
47082;BME280;33066;49.296;14.470;2023-11-19T05:45:07;96653.17;;;8.69;42.95
47082;BME280;33066;49.296;14.470;2023-11-19T05:47:31;96646.83;;;8.64;42.58
47082;BME280;33066;49.296;14.470;2023-11-19T05:49:57;96633.28;;;8.64;42.63
47082;BME280;33066;49.296;14.470;2023-11-19T05:52:22;96635.94;;;8.87;42.64
47082;BME280;33066;49.296;14.470;2023-11-19T05:54:47;96629.70;;;8.95;42.62
47082;BME280;33066;49.296;14.470;2023-11-19T05:57:12;96631.16;;;8.90;42.60
47082;BME280;33066;49.296;14.470;2023-11-19T05:59:39;96630.38;;;8.54;42.67
47082;BME280;33066;49.296;14.470;2023-11-19T06:02:04;96632.97;;;8.70;42.73
47082;BME280;33066;49.296;14.470;2023-11-19T06:04:30;96638.14;;;7.24;42.53
47082;BME280;33066;49.296;14.470;2023-11-19T06:06:54;96631.69;;;8.96;41.11
47082;BME280;33066;49.296;14.470;2023-11-19T06:09:20;96625.55;;;9.41;41.29
47082;BME280;33066;49.296;14.470;2023-11-19T06:11:45;96623.06;;;8.81;41.79
47082;BME280;33066;49.296;14.470;2023-11-19T06:14:11;96625.08;;;9.02;42.02
47082;BME280;33066;49.296;14.470;2023-11-19T06:16:36;96610.44;;;9.28;41.98
47082;BME280;33066;49.296;14.470;2023-11-19T06:19:02;96604.11;;;8.99;42.08
47082;BME280;33066;49.296;14.470;2023-11-19T06:21:27;96607.30;;;8.85;42.15
47082;BME280;33066;49.296;14.470;2023-11-19T06:23:53;96600.69;;;8.79;42.06
47082;BME280;33066;49.296;14.470;2023-11-19T06:26:18;96603.39;;;9.12;41.90
47082;BME280;33066;49.296;14.470;2023-11-19T06:28:43;96607.75;;;9.21;42.02
47082;BME280;33066;49.296;14.470;2023-11-19T06:31:09;96613.96;;;9.07;42.03
47082;BME280;33066;49.296;14.470;2023-11-19T06:33:36;96617.42;;;9.07;42.10
47082;BME280;33066;49.296;14.470;2023-11-19T06:36:00;96619.65;;;9.04;42.13
47082;BME280;33066;49.296;14.470;2023-11-19T06:38:25;96615.30;;;8.92;42.01
47082;BME280;33066;49.296;14.470;2023-11-19T06:40:51;96613.85;;;9.00;41.93
47082;BME280;33066;49.296;14.470;2023-11-19T06:43:17;96618.84;;;9.12;41.95
47082;BME280;33066;49.296;14.470;2023-11-19T06:45:41;96625.02;;;9.40;41.80
47082;BME280;33066;49.296;14.470;2023-11-19T06:48:07;96625.62;;;9.53;41.73
47082;BME280;33066;49.296;14.470;2023-11-19T06:50:32;96623.81;;;9.26;41.60
47082;BME280;33066;49.296;14.470;2023-11-19T06:52:58;96623.86;;;9.53;41.70
47082;BME280;33066;49.296;14.470;2023-11-19T06:55:23;96626.39;;;9.62;41.74
47082;BME280;33066;49.296;14.470;2023-11-19T06:57:48;96615.40;;;9.54;41.56
47082;BME280;33066;49.296;14.470;2023-11-19T07:00:14;96617.26;;;9.61;41.62
47082;BME280;33066;49.296;14.470;2023-11-19T07:02:39;96620.08;;;9.69;41.66
47082;BME280;33066;49.296;14.470;2023-11-19T07:05:05;96632.81;;;9.75;41.86
47082;BME280;33066;49.296;14.470;2023-11-19T07:07:32;96633.24;;;9.57;42.17
47082;BME280;33066;49.296;14.470;2023-11-19T07:09:55;96628.75;;;9.88;42.04
47082;BME280;33066;49.296;14.470;2023-11-19T07:12:20;96636.62;;;9.95;42.02
47082;BME280;33066;49.296;14.470;2023-11-19T07:14:45;96655.56;;;9.78;42.33
47082;BME280;33066;49.296;14.470;2023-11-19T07:17:11;96660.34;;;10.03;42.66
47082;BME280;33066;49.296;14.470;2023-11-19T07:19:36;96657.13;;;9.89;42.66
47082;BME280;33066;49.296;14.470;2023-11-19T07:22:02;96639.94;;;9.72;42.07
47082;BME280;33066;49.296;14.470;2023-11-19T07:24:27;96626.84;;;10.03;41.94
47082;BME280;33066;49.296;14.470;2023-11-19T07:26:52;96626.69;;;10.09;41.98
47082;BME280;33066;49.296;14.470;2023-11-19T07:29:18;96631.44;;;10.37;41.82
47082;BME280;33066;49.296;14.470;2023-11-19T07:31:43;96633.88;;;9.90;41.64
47082;BME280;33066;49.296;14.470;2023-11-19T07:34:08;96631.41;;;9.86;41.57
47082;BME280;33066;49.296;14.470;2023-11-19T07:36:34;96637.63;;;10.06;41.64
47082;BME280;33066;49.296;14.470;2023-11-19T07:38:59;96641.03;;;9.88;41.42
47082;BME280;33066;49.296;14.470;2023-11-19T07:41:24;96645.66;;;10.02;41.61
47082;BME280;33066;49.296;14.470;2023-11-19T07:43:50;96647.73;;;9.86;41.83
47082;BME280;33066;49.296;14.470;2023-11-19T07:46:15;96637.15;;;9.94;41.91
47082;BME280;33066;49.296;14.470;2023-11-19T07:48:41;96636.46;;;10.14;41.82
47082;BME280;33066;49.296;14.470;2023-11-19T07:51:06;96638.47;;;10.07;41.75
47082;BME280;33066;49.296;14.470;2023-11-19T07:53:32;96638.10;;;9.74;42.00
47082;BME280;33066;49.296;14.470;2023-11-19T07:55:57;96622.71;;;9.82;42.07
47082;BME280;33066;49.296;14.470;2023-11-19T07:58:22;96625.47;;;10.15;42.26
47082;BME280;33066;49.296;14.470;2023-11-19T08:00:47;96631.48;;;9.99;42.07
47082;BME280;33066;49.296;14.470;2023-11-19T08:03:13;96626.20;;;10.04;41.79
47082;BME280;33066;49.296;14.470;2023-11-19T08:05:38;96635.72;;;10.10;41.64
47082;BME280;33066;49.296;14.470;2023-11-19T08:08:04;96626.48;;;9.94;41.69
47082;BME280;33066;49.296;14.470;2023-11-19T08:10:29;96628.38;;;10.27;41.63
47082;BME280;33066;49.296;14.470;2023-11-19T08:12:54;96622.50;;;10.31;41.65
47082;BME280;33066;49.296;14.470;2023-11-19T08:15:20;96618.79;;;10.12;41.69
47082;BME280;33066;49.296;14.470;2023-11-19T08:17:47;96617.17;;;10.17;41.78
47082;BME280;33066;49.296;14.470;2023-11-19T08:20:12;96613.01;;;10.23;41.82
47082;BME280;33066;49.296;14.470;2023-11-19T08:22:35;96609.09;;;10.23;41.68
47082;BME280;33066;49.296;14.470;2023-11-19T08:25:00;96604.96;;;10.73;41.76
47082;BME280;33066;49.296;14.470;2023-11-19T08:27:26;96594.70;;;10.23;41.95
47082;BME280;33066;49.296;14.470;2023-11-19T08:29:51;96586.90;;;10.45;42.11
47082;BME280;33066;49.296;14.470;2023-11-19T08:32:17;96594.34;;;10.28;42.10
47082;BME280;33066;49.296;14.470;2023-11-19T08:34:42;96595.54;;;10.17;42.03
47082;BME280;33066;49.296;14.470;2023-11-19T08:37:07;96597.88;;;10.27;42.02
47082;BME280;33066;49.296;14.470;2023-11-19T08:39:33;96599.43;;;10.54;41.94
47082;BME280;33066;49.296;14.470;2023-11-19T08:41:58;96600.25;;;10.32;41.99
47082;BME280;33066;49.296;14.470;2023-11-19T08:44:25;96595.62;;;10.41;41.93
47082;BME280;33066;49.296;14.470;2023-11-19T08:46:49;96593.48;;;10.45;41.97
47082;BME280;33066;49.296;14.470;2023-11-19T08:49:14;96594.89;;;10.79;41.91
47082;BME280;33066;49.296;14.470;2023-11-19T08:51:40;96597.53;;;10.60;41.89
47082;BME280;33066;49.296;14.470;2023-11-19T08:54:06;96604.36;;;10.55;42.02
47082;BME280;33066;49.296;14.470;2023-11-19T08:56:31;96597.13;;;10.63;41.91
47082;BME280;33066;49.296;14.470;2023-11-19T08:58:56;96596.78;;;10.64;41.90
47082;BME280;33066;49.296;14.470;2023-11-19T09:01:21;96598.62;;;10.66;42.10
47082;BME280;33066;49.296;14.470;2023-11-19T09:03:47;96605.80;;;10.73;42.57
47082;BME280;33066;49.296;14.470;2023-11-19T09:06:12;96608.32;;;10.81;42.83
47082;BME280;33066;49.296;14.470;2023-11-19T09:08:37;96603.64;;;10.91;42.69
47082;BME280;33066;49.296;14.470;2023-11-19T09:11:06;96605.23;;;10.95;42.65
47082;BME280;33066;49.296;14.470;2023-11-19T09:13:27;96612.26;;;10.96;42.59
47082;BME280;33066;49.296;14.470;2023-11-19T09:15:52;96612.32;;;10.95;42.79
47082;BME280;33066;49.296;14.470;2023-11-19T09:18:17;96618.06;;;10.75;42.60
47082;BME280;33066;49.296;14.470;2023-11-19T09:20:43;96614.46;;;11.14;42.47
47082;BME280;33066;49.296;14.470;2023-11-19T09:23:09;96609.74;;;11.20;42.09
47082;BME280;33066;49.296;14.470;2023-11-19T09:25:33;96609.34;;;11.29;41.99
47082;BME280;33066;49.296;14.470;2023-11-19T09:27:58;96609.91;;;11.33;41.97
47082;BME280;33066;49.296;14.470;2023-11-19T09:30:24;96601.19;;;11.07;42.24
47082;BME280;33066;49.296;14.470;2023-11-19T09:32:50;96600.77;;;10.75;42.60
47082;BME280;33066;49.296;14.470;2023-11-19T09:35:15;96595.72;;;11.26;42.63
47082;BME280;33066;49.296;14.470;2023-11-19T09:37:40;96591.38;;;11.11;42.59
47082;BME280;33066;49.296;14.470;2023-11-19T09:40:08;96582.91;;;11.38;42.55
47082;BME280;33066;49.296;14.470;2023-11-19T09:42:38;96574.69;;;11.27;42.72
47082;BME280;33066;49.296;14.470;2023-11-19T09:44:56;96554.42;;;11.65;42.38
47082;BME280;33066;49.296;14.470;2023-11-19T09:47:23;96569.10;;;11.68;42.38
47082;BME280;33066;49.296;14.470;2023-11-19T09:49:49;96574.82;;;12.15;41.94
47082;BME280;33066;49.296;14.470;2023-11-19T09:52:14;96576.03;;;11.81;41.63
47082;BME280;33066;49.296;14.470;2023-11-19T09:54:38;96574.27;;;12.13;41.62
47082;BME280;33066;49.296;14.470;2023-11-19T09:57:04;96570.92;;;12.45;41.48
47082;BME280;33066;49.296;14.470;2023-11-19T09:59:31;96571.49;;;12.36;41.53
47082;BME280;33066;49.296;14.470;2023-11-19T10:01:54;96570.87;;;12.25;41.51
47082;BME280;33066;49.296;14.470;2023-11-19T10:04:20;96574.87;;;12.48;41.45
47082;BME280;33066;49.296;14.470;2023-11-19T10:06:44;96575.28;;;12.27;41.62
47082;BME280;33066;49.296;14.470;2023-11-19T10:09:12;96578.14;;;12.29;41.69
47082;BME280;33066;49.296;14.470;2023-11-19T10:11:35;96573.79;;;12.34;41.80
47082;BME280;33066;49.296;14.470;2023-11-19T10:14:01;96565.88;;;12.63;41.86
47082;BME280;33066;49.296;14.470;2023-11-19T10:16:29;96557.75;;;12.36;42.01
47082;BME280;33066;49.296;14.470;2023-11-19T10:18:53;96552.37;;;12.51;42.10
47082;BME280;33066;49.296;14.470;2023-11-19T10:21:18;96544.44;;;12.76;42.01
47082;BME280;33066;49.296;14.470;2023-11-19T10:23:49;96544.83;;;13.05;41.92
47082;BME280;33066;49.296;14.470;2023-11-19T10:26:08;96542.99;;;13.06;41.96
47082;BME280;33066;49.296;14.470;2023-11-19T10:28:38;96543.33;;;13.56;41.58
47082;BME280;33066;49.296;14.470;2023-11-19T10:30:58;96549.06;;;13.56;41.49
47082;BME280;33066;49.296;14.470;2023-11-19T10:33:30;96549.26;;;13.41;41.32
47082;BME280;33066;49.296;14.470;2023-11-19T10:35:53;96540.75;;;13.95;40.65
47082;BME280;33066;49.296;14.470;2023-11-19T10:38:15;96533.60;;;14.00;40.33
47082;BME280;33066;49.296;14.470;2023-11-19T10:40:40;96533.96;;;14.14;40.50
47082;BME280;33066;49.296;14.470;2023-11-19T10:43:06;96537.41;;;13.52;40.78
47082;BME280;33066;49.296;14.470;2023-11-19T10:45:31;96534.15;;;13.59;41.27
47082;BME280;33066;49.296;14.470;2023-11-19T10:47:57;96536.21;;;13.36;41.55
47082;BME280;33066;49.296;14.470;2023-11-19T10:50:23;96536.29;;;13.38;41.79
47082;BME280;33066;49.296;14.470;2023-11-19T10:52:48;96534.60;;;13.24;42.18
47082;BME280;33066;49.296;14.470;2023-11-19T10:55:16;96528.90;;;13.15;42.59
47082;BME280;33066;49.296;14.470;2023-11-19T10:57:39;96520.37;;;13.03;42.78
47082;BME280;33066;49.296;14.470;2023-11-19T11:00:04;96513.79;;;12.79;43.25
47082;BME280;33066;49.296;14.470;2023-11-19T11:02:34;96511.84;;;12.81;43.27
47082;BME280;33066;49.296;14.470;2023-11-19T11:04:57;96510.07;;;13.07;43.40
47082;BME280;33066;49.296;14.470;2023-11-19T11:07:22;96510.25;;;12.80;43.67
47082;BME280;33066;49.296;14.470;2023-11-19T11:09:45;96517.18;;;13.12;43.55
47082;BME280;33066;49.296;14.470;2023-11-19T11:12:11;96506.82;;;13.70;43.36
47082;BME280;33066;49.296;14.470;2023-11-19T11:14:37;96500.89;;;13.55;43.56
47082;BME280;33066;49.296;14.470;2023-11-19T11:17:02;96499.94;;;13.46;43.67
47082;BME280;33066;49.296;14.470;2023-11-19T11:19:28;96497.70;;;13.43;43.64
47082;BME280;33066;49.296;14.470;2023-11-19T11:21:54;96500.78;;;13.64;43.90
47082;BME280;33066;49.296;14.470;2023-11-19T11:24:37;96504.82;;;14.16;43.45
47082;BME280;33066;49.296;14.470;2023-11-19T11:26:53;96502.48;;;13.84;43.18
47082;BME280;33066;49.296;14.470;2023-11-19T11:29:14;96496.54;;;14.36;42.87
47082;BME280;33066;49.296;14.470;2023-11-19T11:31:48;96499.25;;;14.18;42.82
47082;BME280;33066;49.296;14.470;2023-11-19T11:34:14;96505.46;;;14.14;43.05
47082;BME280;33066;49.296;14.470;2023-11-19T11:36:24;96502.94;;;14.13;43.03
47082;BME280;33066;49.296;14.470;2023-11-19T11:38:49;96499.71;;;14.08;43.40
47082;BME280;33066;49.296;14.470;2023-11-19T11:41:16;96504.84;;;14.45;43.53
47082;BME280;33066;49.296;14.470;2023-11-19T11:43:44;96505.86;;;13.86;43.39
47082;BME280;33066;49.296;14.470;2023-11-19T11:46:05;96502.61;;;13.94;43.68
47082;BME280;33066;49.296;14.470;2023-11-19T11:48:30;96506.12;;;13.88;43.97
47082;BME280;33066;49.296;14.470;2023-11-19T11:50:57;96509.38;;;13.60;44.16
47082;BME280;33066;49.296;14.470;2023-11-19T11:53:25;96506.72;;;13.92;44.40
47082;BME280;33066;49.296;14.470;2023-11-19T11:55:56;96507.74;;;14.32;44.67
47082;BME280;33066;49.296;14.470;2023-11-19T11:58:12;96505.78;;;14.40;44.39
47082;BME280;33066;49.296;14.470;2023-11-19T12:00:40;96498.76;;;14.58;44.01
47082;BME280;33066;49.296;14.470;2023-11-19T12:03:06;96494.27;;;14.96;43.67
47082;BME280;33066;49.296;14.470;2023-11-19T12:05:30;96496.79;;;15.54;42.98
47082;BME280;33066;49.296;14.470;2023-11-19T12:07:55;96498.39;;;15.19;42.93
47082;BME280;33066;49.296;14.470;2023-11-19T12:10:21;96498.39;;;15.16;43.25
47082;BME280;33066;49.296;14.470;2023-11-19T12:12:45;96492.14;;;15.44;42.88
47082;BME280;33066;49.296;14.470;2023-11-19T12:15:10;96492.24;;;15.48;43.07
47082;BME280;33066;49.296;14.470;2023-11-19T12:17:41;96488.17;;;14.79;43.37
47082;BME280;33066;49.296;14.470;2023-11-19T12:20:04;96480.57;;;14.58;43.56
47082;BME280;33066;49.296;14.470;2023-11-19T12:22:27;96487.84;;;14.82;43.94
47082;BME280;33066;49.296;14.470;2023-11-19T12:24:51;96488.33;;;14.60;44.39
47082;BME280;33066;49.296;14.470;2023-11-19T12:27:17;96485.76;;;14.32;44.77
47082;BME280;33066;49.296;14.470;2023-11-19T12:29:43;96486.80;;;14.20;45.12
47082;BME280;33066;49.296;14.470;2023-11-19T12:32:07;96499.74;;;14.23;45.59
47082;BME280;33066;49.296;14.470;2023-11-19T12:34:33;96499.02;;;13.96;45.88
47082;BME280;33066;49.296;14.470;2023-11-19T12:36:58;96500.71;;;14.12;46.24
47082;BME280;33066;49.296;14.470;2023-11-19T12:39:23;96501.26;;;13.83;46.57
47082;BME280;33066;49.296;14.470;2023-11-19T12:41:50;96499.19;;;13.72;46.80
47082;BME280;33066;49.296;14.470;2023-11-19T12:44:14;96493.89;;;13.88;47.14
47082;BME280;33066;49.296;14.470;2023-11-19T12:46:39;96492.42;;;13.93;47.47
47082;BME280;33066;49.296;14.470;2023-11-19T12:49:05;96490.85;;;13.93;47.71